Pinega, Russia
Current Conditions -  °F | °C
As of 2:00 AM on Saturday 01 Nov 2014 (Local Time) from ULAA Reporting Station
Overcast Overcast  
Wind Chill: 23°   Ceiling: Unl
Heat Index: 28°   Visibility: 6mi
Dew Point: 28°   Wind: 4mph
Humidity: 100%   Direction: 320°NW
Pressure: 30"   Gusts: NA
Location:  64.7°N, 43.38°E
Report Text: ULAA 312300Z 32002MPS 9999 SCT030 OVC/// M02/M02 Q1016 NOSIGRMK QFE760/1014 SC037
Loading
Personal Weather Stations






























Interactive Weather Map
Tropical Storm Tracking
New forecast layout! Learn more

10-Day Weather Forecast

Advertisements
Track Severe Weather on mobile